sensor_id;sensor_type;location;lat;lon;timestamp;pressure;altitude;pressure_sealevel;temperature
14666;BMP280;7420;53.574;10.040;2022-07-17T00:01:12;102595.66;;;13.25
14666;BMP280;7420;53.574;10.040;2022-07-17T00:03:37;102589.97;;;13.28
14666;BMP280;7420;53.574;10.040;2022-07-17T00:06:03;102595.66;;;13.25
14666;BMP280;7420;53.574;10.040;2022-07-17T00:08:28;102594.72;;;13.18
14666;BMP280;7420;53.574;10.040;2022-07-17T00:10:56;102594.81;;;13.10
14666;BMP280;7420;53.574;10.040;2022-07-17T00:13:21;102595.34;;;13.05
14666;BMP280;7420;53.574;10.040;2022-07-17T00:15:47;102592.16;;;13.10
14666;BMP280;7420;53.574;10.040;2022-07-17T00:18:12;102589.47;;;13.10
14666;BMP280;7420;53.574;10.040;2022-07-17T00:20:37;102586.69;;;13.03
14666;BMP280;7420;53.574;10.040;2022-07-17T00:23:03;102589.19;;;13.05
14666;BMP280;7420;53.574;10.040;2022-07-17T00:25:28;102587.03;;;13.00
14666;BMP280;7420;53.574;10.040;2022-07-17T00:27:53;102596.41;;;12.96
14666;BMP280;7420;53.574;10.040;2022-07-17T00:30:19;102599.38;;;13.01
14666;BMP280;7420;53.574;10.040;2022-07-17T00:32:45;102602.06;;;13.01
14666;BMP280;7420;53.574;10.040;2022-07-17T00:35:10;102601.91;;;13.03
14666;BMP280;7420;53.574;10.040;2022-07-17T00:37:40;102597.63;;;12.94
14666;BMP280;7420;53.574;10.040;2022-07-17T00:40:08;102599.38;;;13.01
14666;BMP280;7420;53.574;10.040;2022-07-17T00:42:33;102591.47;;;12.93
14666;BMP280;7420;53.574;10.040;2022-07-17T00:44:59;102594.31;;;12.92
14666;BMP280;7420;53.574;10.040;2022-07-17T00:47:24;102593.63;;;12.90
14666;BMP280;7420;53.574;10.040;2022-07-17T00:49:50;102580.63;;;12.87
14666;BMP280;7420;53.574;10.040;2022-07-17T00:52:16;102589.63;;;12.86
14666;BMP280;7420;53.574;10.040;2022-07-17T00:54:43;102583.28;;;12.87
14666;BMP280;7420;53.574;10.040;2022-07-17T00:57:12;102590.28;;;12.88
14666;BMP280;7420;53.574;10.040;2022-07-17T00:59:38;102589.63;;;12.86
14666;BMP280;7420;53.574;10.040;2022-07-17T01:02:10;102583.00;;;12.82
14666;BMP280;7420;53.574;10.040;2022-07-17T01:04:36;102595.81;;;12.86
14666;BMP280;7420;53.574;10.040;2022-07-17T01:07:04;102584.84;;;12.81
14666;BMP280;7420;53.574;10.040;2022-07-17T01:09:30;102593.66;;;12.82
14666;BMP280;7420;53.574;10.040;2022-07-17T01:11:56;102590.84;;;12.83
14666;BMP280;7420;53.574;10.040;2022-07-17T01:14:23;102592.00;;;12.81
14666;BMP280;7420;53.574;10.040;2022-07-17T01:16:50;102594.31;;;12.84
14666;BMP280;7420;53.574;10.040;2022-07-17T01:19:16;102593.38;;;12.77
14666;BMP280;7420;53.574;10.040;2022-07-17T01:21:43;102586.09;;;12.71
14666;BMP280;7420;53.574;10.040;2022-07-17T01:24:09;102604.03;;;12.77
14666;BMP280;7420;53.574;10.040;2022-07-17T01:26:35;102587.38;;;12.75
14666;BMP280;7420;53.574;10.040;2022-07-17T01:29:00;102590.91;;;12.75
14666;BMP280;7420;53.574;10.040;2022-07-17T01:31:25;102600.91;;;12.73
14666;BMP280;7420;53.574;10.040;2022-07-17T01:33:51;102601.47;;;12.69
14666;BMP280;7420;53.574;10.040;2022-07-17T01:36:22;102600.91;;;12.73
14666;BMP280;7420;53.574;10.040;2022-07-17T01:38:48;102606.44;;;12.72
14666;BMP280;7420;53.574;10.040;2022-07-17T01:41:14;102604.69;;;12.79
14666;BMP280;7420;53.574;10.040;2022-07-17T01:43:39;102607.66;;;12.84
14666;BMP280;7420;53.574;10.040;2022-07-17T01:46:04;102610.03;;;12.79
14666;BMP280;7420;53.574;10.040;2022-07-17T01:48:30;102602.31;;;12.84
14666;BMP280;7420;53.574;10.040;2022-07-17T01:50:55;102611.00;;;12.86
14666;BMP280;7420;53.574;10.040;2022-07-17T01:53:21;102607.94;;;12.97
14666;BMP280;7420;53.574;10.040;2022-07-17T01:55:47;102607.38;;;13.01
14666;BMP280;7420;53.574;10.040;2022-07-17T01:58:13;102608.88;;;13.04
14666;BMP280;7420;53.574;10.040;2022-07-17T02:00:39;102607.75;;;12.98
14666;BMP280;7420;53.574;10.040;2022-07-17T02:03:04;102609.41;;;12.99
14666;BMP280;7420;53.574;10.040;2022-07-17T02:05:30;102607.28;;;12.95
14666;BMP280;7420;53.574;10.040;2022-07-17T02:07:55;102601.28;;;12.93
14666;BMP280;7420;53.574;10.040;2022-07-17T02:10:21;102601.75;;;12.96
14666;BMP280;7420;53.574;10.040;2022-07-17T02:12:46;102601.25;;;13.01
14666;BMP280;7420;53.574;10.040;2022-07-17T02:15:13;102598.22;;;13.04
14666;BMP280;7420;53.574;10.040;2022-07-17T02:17:39;102599.88;;;13.05
14666;BMP280;7420;53.574;10.040;2022-07-17T02:20:06;102601.53;;;13.06
14666;BMP280;7420;53.574;10.040;2022-07-17T02:22:33;102601.41;;;12.99
14666;BMP280;7420;53.574;10.040;2022-07-17T02:24:58;102595.31;;;12.91
14666;BMP280;7420;53.574;10.040;2022-07-17T02:27:23;102602.97;;;12.86
14666;BMP280;7420;53.574;10.040;2022-07-17T02:29:49;102606.91;;;12.75
14666;BMP280;7420;53.574;10.040;2022-07-17T02:32:14;102613.31;;;12.89
14666;BMP280;7420;53.574;10.040;2022-07-17T02:34:40;102614.28;;;12.96
14666;BMP280;7420;53.574;10.040;2022-07-17T02:37:05;102614.09;;;12.97
14666;BMP280;7420;53.574;10.040;2022-07-17T02:39:31;102621.66;;;12.94
14666;BMP280;7420;53.574;10.040;2022-07-17T02:41:57;102629.31;;;12.97
14666;BMP280;7420;53.574;10.040;2022-07-17T02:44:22;102629.84;;;12.92
14666;BMP280;7420;53.574;10.040;2022-07-17T02:46:47;102630.97;;;12.98
14666;BMP280;7420;53.574;10.040;2022-07-17T02:49:12;102639.50;;;12.93
14666;BMP280;7420;53.574;10.040;2022-07-17T02:51:38;102639.97;;;12.97
14666;BMP280;7420;53.574;10.040;2022-07-17T02:54:03;102647.13;;;12.96
14666;BMP280;7420;53.574;10.040;2022-07-17T02:56:28;102633.94;;;13.03
14666;BMP280;7420;53.574;10.040;2022-07-17T02:58:54;102639.97;;;12.97
14666;BMP280;7420;53.574;10.040;2022-07-17T03:01:19;102636.59;;;13.03
14666;BMP280;7420;53.574;10.040;2022-07-17T03:03:44;102655.00;;;12.98
14666;BMP280;7420;53.574;10.040;2022-07-17T03:06:11;102653.31;;;12.97
14666;BMP280;7420;53.574;10.040;2022-07-17T03:08:36;102653.03;;;12.92
14666;BMP280;7420;53.574;10.040;2022-07-17T03:11:01;102660.50;;;12.96
14666;BMP280;7420;53.574;10.040;2022-07-17T03:13:27;102667.97;;;13.01
14666;BMP280;7420;53.574;10.040;2022-07-17T03:15:52;102665.66;;;12.98
14666;BMP280;7420;53.574;10.040;2022-07-17T03:18:18;102658.69;;;12.89
14666;BMP280;7420;53.574;10.040;2022-07-17T03:20:43;102657.97;;;13.03
14666;BMP280;7420;53.574;10.040;2022-07-17T03:23:08;102663.94;;;13.05
14666;BMP280;7420;53.574;10.040;2022-07-17T03:25:34;102649.00;;;12.96
14666;BMP280;7420;53.574;10.040;2022-07-17T03:27:59;102646.63;;;13.01
14666;BMP280;7420;53.574;10.040;2022-07-17T03:30:25;102640.75;;;13.05
14666;BMP280;7420;53.574;10.040;2022-07-17T03:32:50;102633.47;;;13.14
14666;BMP280;7420;53.574;10.040;2022-07-17T03:35:15;102634.88;;;13.10
14666;BMP280;7420;53.574;10.040;2022-07-17T03:37:41;102625.47;;;13.14
14666;BMP280;7420;53.574;10.040;2022-07-17T03:40:09;102624.00;;;13.11
14666;BMP280;7420;53.574;10.040;2022-07-17T03:42:35;102618.00;;;13.09
14666;BMP280;7420;53.574;10.040;2022-07-17T03:45:00;102614.63;;;13.15
14666;BMP280;7420;53.574;10.040;2022-07-17T03:47:26;102621.44;;;13.18
14666;BMP280;7420;53.574;10.040;2022-07-17T03:49:51;102627.31;;;13.13
14666;BMP280;7420;53.574;10.040;2022-07-17T03:52:16;102634.44;;;13.21
14666;BMP280;7420;53.574;10.040;2022-07-17T03:54:42;102639.13;;;13.19
14666;BMP280;7420;53.574;10.040;2022-07-17T03:57:07;102651.22;;;13.29
14666;BMP280;7420;53.574;10.040;2022-07-17T03:59:32;102650.09;;;13.24
14666;BMP280;7420;53.574;10.040;2022-07-17T04:01:58;102656.75;;;13.28
14666;BMP280;7420;53.574;10.040;2022-07-17T04:04:23;102664.28;;;13.24
14666;BMP280;7420;53.574;10.040;2022-07-17T04:06:48;102666.97;;;13.24
14666;BMP280;7420;53.574;10.040;2022-07-17T04:09:14;102662.38;;;13.33
14666;BMP280;7420;53.574;10.040;2022-07-17T04:11:39;102656.09;;;13.26
14666;BMP280;7420;53.574;10.040;2022-07-17T04:14:04;102661.06;;;13.29
14666;BMP280;7420;53.574;10.040;2022-07-17T04:16:30;102654.06;;;13.28
14666;BMP280;7420;53.574;10.040;2022-07-17T04:18:55;102654.56;;;13.31
14666;BMP280;7420;53.574;10.040;2022-07-17T04:21:21;102661.38;;;13.34
14666;BMP280;7420;53.574;10.040;2022-07-17T04:23:46;102673.25;;;13.31
14666;BMP280;7420;53.574;10.040;2022-07-17T04:26:12;102667.38;;;13.36
14666;BMP280;7420;53.574;10.040;2022-07-17T04:28:38;102664.34;;;13.39
14666;BMP280;7420;53.574;10.040;2022-07-17T04:31:04;102659.63;;;13.41
14666;BMP280;7420;53.574;10.040;2022-07-17T04:33:29;102654.31;;;13.41
14666;BMP280;7420;53.574;10.040;2022-07-17T04:35:55;102663.31;;;13.40
14666;BMP280;7420;53.574;10.040;2022-07-17T04:38:20;102660.59;;;13.48
14666;BMP280;7420;53.574;10.040;2022-07-17T04:40:46;102657.16;;;13.54
14666;BMP280;7420;53.574;10.040;2022-07-17T04:43:14;102666.56;;;13.50
14666;BMP280;7420;53.574;10.040;2022-07-17T04:45:39;102649.63;;;13.57
14666;BMP280;7420;53.574;10.040;2022-07-17T04:48:05;102652.75;;;13.61
14666;BMP280;7420;53.574;10.040;2022-07-17T04:50:30;102645.66;;;13.68
14666;BMP280;7420;53.574;10.040;2022-07-17T04:52:56;102640.69;;;13.65
14666;BMP280;7420;53.574;10.040;2022-07-17T04:55:22;102646.88;;;13.65
14666;BMP280;7420;53.574;10.040;2022-07-17T04:57:48;102647.06;;;13.78
14666;BMP280;7420;53.574;10.040;2022-07-17T05:00:13;102648.47;;;13.88
14666;BMP280;7420;53.574;10.040;2022-07-17T05:02:40;102644.28;;;13.86
14666;BMP280;7420;53.574;10.040;2022-07-17T05:05:05;102644.00;;;13.81
14666;BMP280;7420;53.574;10.040;2022-07-17T05:07:31;102638.88;;;13.79
14666;BMP280;7420;53.574;10.040;2022-07-17T05:09:56;102640.81;;;14.00
14666;BMP280;7420;53.574;10.040;2022-07-17T05:12:22;102644.78;;;13.89
14666;BMP280;7420;53.574;10.040;2022-07-17T05:14:47;102645.31;;;13.99
14666;BMP280;7420;53.574;10.040;2022-07-17T05:17:12;102651.66;;;13.98
14666;BMP280;7420;53.574;10.040;2022-07-17T05:19:38;102640.81;;;14.14
14666;BMP280;7420;53.574;10.040;2022-07-17T05:22:04;102645.13;;;14.01
14666;BMP280;7420;53.574;10.040;2022-07-17T05:26:55;102657.88;;;14.13
14666;BMP280;7420;53.574;10.040;2022-07-17T05:29:21;102650.84;;;14.12
14666;BMP280;7420;53.574;10.040;2022-07-17T05:31:46;102663.28;;;14.05
14666;BMP280;7420;53.574;10.040;2022-07-17T05:34:11;102660.69;;;14.12
14666;BMP280;7420;53.574;10.040;2022-07-17T05:36:37;102674.75;;;14.28
14666;BMP280;7420;53.574;10.040;2022-07-17T05:39:02;102679.38;;;14.20
14666;BMP280;7420;53.574;10.040;2022-07-17T05:41:28;102672.09;;;14.28
14666;BMP280;7420;53.574;10.040;2022-07-17T05:43:53;102679.09;;;14.29
14666;BMP280;7420;53.574;10.040;2022-07-17T05:46:18;102667.75;;;14.27
14666;BMP280;7420;53.574;10.040;2022-07-17T05:48:43;102666.88;;;14.41
14666;BMP280;7420;53.574;10.040;2022-07-17T05:51:09;102658.34;;;14.31
14666;BMP280;7420;53.574;10.040;2022-07-17T05:53:34;102669.38;;;14.43
14666;BMP280;7420;53.574;10.040;2022-07-17T05:55:59;102662.28;;;14.50
14666;BMP280;7420;53.574;10.040;2022-07-17T05:58:25;102661.00;;;14.31
14666;BMP280;7420;53.574;10.040;2022-07-17T06:00:51;102663.38;;;14.41
14666;BMP280;7420;53.574;10.040;2022-07-17T06:03:16;102659.66;;;14.56
14666;BMP280;7420;53.574;10.040;2022-07-17T06:05:42;102675.19;;;14.46
14666;BMP280;7420;53.574;10.040;2022-07-17T06:08:07;102675.09;;;14.54
14666;BMP280;7420;53.574;10.040;2022-07-17T06:10:33;102672.13;;;14.49
14666;BMP280;7420;53.574;10.040;2022-07-17T06:15:24;102668.06;;;14.89
14666;BMP280;7420;53.574;10.040;2022-07-17T06:17:49;102670.53;;;14.90
14666;BMP280;7420;53.574;10.040;2022-07-17T06:20:15;102686.88;;;14.95
14666;BMP280;7420;53.574;10.040;2022-07-17T06:22:42;102686.84;;;15.16
14666;BMP280;7420;53.574;10.040;2022-07-17T06:25:09;102678.94;;;14.87
14666;BMP280;7420;53.574;10.040;2022-07-17T06:27:35;102684.47;;;14.65
14666;BMP280;7420;53.574;10.040;2022-07-17T06:30:01;102688.59;;;14.82
14666;BMP280;7420;53.574;10.040;2022-07-17T06:32:27;102687.41;;;14.91
14666;BMP280;7420;53.574;10.040;2022-07-17T06:34:52;102692.59;;;14.92
14666;BMP280;7420;53.574;10.040;2022-07-17T06:37:18;102692.22;;;14.95
14666;BMP280;7420;53.574;10.040;2022-07-17T06:39:43;102685.84;;;14.96
14666;BMP280;7420;53.574;10.040;2022-07-17T06:42:09;102697.72;;;15.08
14666;BMP280;7420;53.574;10.040;2022-07-17T06:44:36;102692.97;;;15.10
14666;BMP280;7420;53.574;10.040;2022-07-17T06:47:01;102696.09;;;15.28
14666;BMP280;7420;53.574;10.040;2022-07-17T06:49:26;102693.75;;;15.25
14666;BMP280;7420;53.574;10.040;2022-07-17T06:51:51;102707.75;;;15.41
14666;BMP280;7420;53.574;10.040;2022-07-17T06:54:17;102716.25;;;15.45
14666;BMP280;7420;53.574;10.040;2022-07-17T06:56:43;102705.97;;;15.48
14666;BMP280;7420;53.574;10.040;2022-07-17T06:59:08;102713.34;;;15.67
14666;BMP280;7420;53.574;10.040;2022-07-17T07:01:35;102715.69;;;15.77
14666;BMP280;7420;53.574;10.040;2022-07-17T07:04:01;102715.59;;;15.98
14666;BMP280;7420;53.574;10.040;2022-07-17T07:06:26;102711.69;;;15.66
14666;BMP280;7420;53.574;10.040;2022-07-17T07:08:52;102705.88;;;15.63
14666;BMP280;7420;53.574;10.040;2022-07-17T07:11:17;102707.09;;;15.88
14666;BMP280;7420;53.574;10.040;2022-07-17T07:13:43;102715.56;;;16.18
14666;BMP280;7420;53.574;10.040;2022-07-17T07:16:09;102710.72;;;16.08
14666;BMP280;7420;53.574;10.040;2022-07-17T07:21:01;102711.22;;;16.17
14666;BMP280;7420;53.574;10.040;2022-07-17T07:23:26;102712.53;;;16.01
14666;BMP280;7420;53.574;10.040;2022-07-17T07:25:51;102705.47;;;15.93
14666;BMP280;7420;53.574;10.040;2022-07-17T07:28:17;102706.66;;;16.18
14666;BMP280;7420;53.574;10.040;2022-07-17T07:30:42;102709.16;;;16.53
14666;BMP280;7420;53.574;10.040;2022-07-17T07:33:07;102700.06;;;16.54
14666;BMP280;7420;53.574;10.040;2022-07-17T07:35:33;102704.75;;;16.39
14666;BMP280;7420;53.574;10.040;2022-07-17T07:37:58;102711.63;;;16.55
14666;BMP280;7420;53.574;10.040;2022-07-17T07:40:24;102724.78;;;16.90
14666;BMP280;7420;53.574;10.040;2022-07-17T07:42:49;102721.78;;;17.32
14666;BMP280;7420;53.574;10.040;2022-07-17T07:45:15;102723.38;;;17.14
14666;BMP280;7420;53.574;10.040;2022-07-17T07:47:46;102734.94;;;17.01
14666;BMP280;7420;53.574;10.040;2022-07-17T07:50:12;102727.69;;;17.08
14666;BMP280;7420;53.574;10.040;2022-07-17T07:52:37;102716.34;;;17.26
14666;BMP280;7420;53.574;10.040;2022-07-17T07:55:03;102720.16;;;17.50
14666;BMP280;7420;53.574;10.040;2022-07-17T07:57:29;102721.50;;;17.14
14666;BMP280;7420;53.574;10.040;2022-07-17T07:59:54;102727.84;;;16.81
14666;BMP280;7420;53.574;10.040;2022-07-17T08:02:20;102727.41;;;16.71
14666;BMP280;7420;53.574;10.040;2022-07-17T08:04:45;102730.16;;;16.90
14666;BMP280;7420;53.574;10.040;2022-07-17T08:07:10;102739.41;;;17.67
14666;BMP280;7420;53.574;10.040;2022-07-17T08:09:36;102728.84;;;17.52
14666;BMP280;7420;53.574;10.040;2022-07-17T08:12:01;102728.41;;;17.88
14666;BMP280;7420;53.574;10.040;2022-07-17T08:14:26;102737.28;;;18.08
14666;BMP280;7420;53.574;10.040;2022-07-17T08:16:52;102751.81;;;17.68
14666;BMP280;7420;53.574;10.040;2022-07-17T08:19:18;102747.66;;;17.91
14666;BMP280;7420;53.574;10.040;2022-07-17T08:21:43;102749.13;;;17.61
14666;BMP280;7420;53.574;10.040;2022-07-17T08:24:08;102753.41;;;17.30
14666;BMP280;7420;53.574;10.040;2022-07-17T08:26:34;102753.41;;;17.24
14666;BMP280;7420;53.574;10.040;2022-07-17T08:28:59;102764.81;;;17.38
14666;BMP280;7420;53.574;10.040;2022-07-17T08:31:24;102755.31;;;17.81
14666;BMP280;7420;53.574;10.040;2022-07-17T08:33:50;102758.19;;;17.93
14666;BMP280;7420;53.574;10.040;2022-07-17T08:36:16;102765.25;;;17.81
14666;BMP280;7420;53.574;10.040;2022-07-17T08:38:42;102768.75;;;17.62
14666;BMP280;7420;53.574;10.040;2022-07-17T08:41:07;102766.28;;;17.41
14666;BMP280;7420;53.574;10.040;2022-07-17T08:43:35;102762.78;;;17.53
14666;BMP280;7420;53.574;10.040;2022-07-17T08:46:00;102772.47;;;17.87
14666;BMP280;7420;53.574;10.040;2022-07-17T08:48:26;102772.06;;;18.35
14666;BMP280;7420;53.574;10.040;2022-07-17T08:50:52;102759.31;;;18.68
14666;BMP280;7420;53.574;10.040;2022-07-17T08:53:21;102758.84;;;18.77
14666;BMP280;7420;53.574;10.040;2022-07-17T08:55:46;102752.66;;;18.70
14666;BMP280;7420;53.574;10.040;2022-07-17T08:58:16;102756.75;;;18.29
14666;BMP280;7420;53.574;10.040;2022-07-17T09:00:42;102767.22;;;18.50
14666;BMP280;7420;53.574;10.040;2022-07-17T09:03:08;102758.66;;;18.72
14666;BMP280;7420;53.574;10.040;2022-07-17T09:05:44;102756.94;;;18.84
14666;BMP280;7420;53.574;10.040;2022-07-17T09:08:17;102756.91;;;18.41
14666;BMP280;7420;53.574;10.040;2022-07-17T09:10:45;102756.16;;;18.01
14666;BMP280;7420;53.574;10.040;2022-07-17T09:13:30;102771.63;;;18.32
14666;BMP280;7420;53.574;10.040;2022-07-17T09:15:58;102764.59;;;18.11
14666;BMP280;7420;53.574;10.040;2022-07-17T09:18:23;102764.72;;;18.61
14666;BMP280;7420;53.574;10.040;2022-07-17T09:20:51;102757.91;;;18.52
14666;BMP280;7420;53.574;10.040;2022-07-17T09:23:18;102753.97;;;18.61
14666;BMP280;7420;53.574;10.040;2022-07-17T09:25:48;102756.41;;;18.63
14666;BMP280;7420;53.574;10.040;2022-07-17T09:28:15;102760.88;;;18.38
14666;BMP280;7420;53.574;10.040;2022-07-17T09:30:43;102754.47;;;18.26
14666;BMP280;7420;53.574;10.040;2022-07-17T09:33:15;102757.00;;;17.76
14666;BMP280;7420;53.574;10.040;2022-07-17T09:35:46;102754.69;;;17.86
14666;BMP280;7420;53.574;10.040;2022-07-17T09:38:13;102762.69;;;18.44
14666;BMP280;7420;53.574;10.040;2022-07-17T09:40:49;102751.50;;;18.97
14666;BMP280;7420;53.574;10.040;2022-07-17T09:43:44;102751.22;;;19.12
14666;BMP280;7420;53.574;10.040;2022-07-17T09:46:13;102751.91;;;19.87
14666;BMP280;7420;53.574;10.040;2022-07-17T09:48:42;102748.38;;;19.38
14666;BMP280;7420;53.574;10.040;2022-07-17T09:53:53;102751.06;;;19.38
14666;BMP280;7420;53.574;10.040;2022-07-17T09:56:20;102756.09;;;19.34
14666;BMP280;7420;53.574;10.040;2022-07-17T09:58:53;102754.88;;;19.30
14666;BMP280;7420;53.574;10.040;2022-07-17T10:01:19;102740.09;;;19.33
14666;BMP280;7420;53.574;10.040;2022-07-17T10:03:46;102741.53;;;19.66
14666;BMP280;7420;53.574;10.040;2022-07-17T10:06:14;102760.66;;;19.58
14666;BMP280;7420;53.574;10.040;2022-07-17T10:08:39;102743.22;;;19.36
14666;BMP280;7420;53.574;10.040;2022-07-17T10:11:06;102746.84;;;19.48
14666;BMP280;7420;53.574;10.040;2022-07-17T10:13:32;102742.94;;;19.68
14666;BMP280;7420;53.574;10.040;2022-07-17T10:15:58;102751.91;;;19.38
14666;BMP280;7420;53.574;10.040;2022-07-17T10:18:40;102748.53;;;19.12
14666;BMP280;7420;53.574;10.040;2022-07-17T10:23:35;102737.94;;;19.72
14666;BMP280;7420;53.574;10.040;2022-07-17T10:26:01;102746.06;;;19.90
14666;BMP280;7420;53.574;10.040;2022-07-17T10:28:44;102748.13;;;19.70
14666;BMP280;7420;53.574;10.040;2022-07-17T10:31:10;102741.25;;;19.50
14666;BMP280;7420;53.574;10.040;2022-07-17T10:33:36;102738.59;;;19.92
14666;BMP280;7420;53.574;10.040;2022-07-17T10:36:02;102732.59;;;19.66
14666;BMP280;7420;53.574;10.040;2022-07-17T10:38:27;102739.00;;;19.71
14666;BMP280;7420;53.574;10.040;2022-07-17T10:41:02;102738.66;;;19.61
14666;BMP280;7420;53.574;10.040;2022-07-17T10:43:41;102737.44;;;20.06
14666;BMP280;7420;53.574;10.040;2022-07-17T10:46:07;102728.63;;;20.17
14666;BMP280;7420;53.574;10.040;2022-07-17T10:48:32;102734.19;;;19.73
14666;BMP280;7420;53.574;10.040;2022-07-17T10:50:58;102736.47;;;19.76
14666;BMP280;7420;53.574;10.040;2022-07-17T10:53:30;102736.28;;;19.95
14666;BMP280;7420;53.574;10.040;2022-07-17T10:56:02;102730.66;;;19.97
14666;BMP280;7420;53.574;10.040;2022-07-17T10:58:40;102717.59;;;20.18
14666;BMP280;7420;53.574;10.040;2022-07-17T11:01:11;102722.81;;;19.89
14666;BMP280;7420;53.574;10.040;2022-07-17T11:03:53;102717.78;;;19.99
14666;BMP280;7420;53.574;10.040;2022-07-17T11:06:30;102727.25;;;20.26
14666;BMP280;7420;53.574;10.040;2022-07-17T11:09:06;102731.59;;;20.27
14666;BMP280;7420;53.574;10.040;2022-07-17T11:11:43;102725.38;;;20.44
14666;BMP280;7420;53.574;10.040;2022-07-17T11:14:15;102720.34;;;20.30
14666;BMP280;7420;53.574;10.040;2022-07-17T11:19:36;102716.81;;;19.87
14666;BMP280;7420;53.574;10.040;2022-07-17T11:22:10;102719.31;;;20.49
14666;BMP280;7420;53.574;10.040;2022-07-17T11:24:47;102719.66;;;20.52
14666;BMP280;7420;53.574;10.040;2022-07-17T11:27:26;102725.69;;;20.36
14666;BMP280;7420;53.574;10.040;2022-07-17T11:29:55;102720.78;;;20.27
14666;BMP280;7420;53.574;10.040;2022-07-17T11:32:21;102718.56;;;20.42
14666;BMP280;7420;53.574;10.040;2022-07-17T11:34:47;102715.50;;;20.38
14666;BMP280;7420;53.574;10.040;2022-07-17T11:39:39;102719.50;;;20.65
14666;BMP280;7420;53.574;10.040;2022-07-17T11:42:09;102710.44;;;20.42
14666;BMP280;7420;53.574;10.040;2022-07-17T11:44:35;102721.41;;;20.83
14666;BMP280;7420;53.574;10.040;2022-07-17T11:47:01;102709.88;;;21.16
14666;BMP280;7420;53.574;10.040;2022-07-17T11:51:56;102715.41;;;21.21
14666;BMP280;7420;53.574;10.040;2022-07-17T11:54:22;102720.16;;;20.79
14666;BMP280;7420;53.574;10.040;2022-07-17T11:56:53;102720.78;;;20.63
14666;BMP280;7420;53.574;10.040;2022-07-17T11:59:28;102698.94;;;21.11
14666;BMP280;7420;53.574;10.040;2022-07-17T12:04:19;102711.50;;;21.06
14666;BMP280;7420;53.574;10.040;2022-07-17T12:06:57;102720.28;;;21.01
14666;BMP280;7420;53.574;10.040;2022-07-17T12:09:29;102709.72;;;21.52
14666;BMP280;7420;53.574;10.040;2022-07-17T12:11:59;102705.81;;;21.48
14666;BMP280;7420;53.574;10.040;2022-07-17T12:14:24;102703.88;;;22.12
14666;BMP280;7420;53.574;10.040;2022-07-17T12:16:50;102707.94;;;21.46
14666;BMP280;7420;53.574;10.040;2022-07-17T12:19:22;102707.13;;;21.57
14666;BMP280;7420;53.574;10.040;2022-07-17T12:22:04;102710.22;;;21.20
14666;BMP280;7420;53.574;10.040;2022-07-17T12:24:32;102711.78;;;21.80
14666;BMP280;7420;53.574;10.040;2022-07-17T12:27:00;102697.63;;;21.89
14666;BMP280;7420;53.574;10.040;2022-07-17T12:29:26;102704.13;;;22.11
14666;BMP280;7420;53.574;10.040;2022-07-17T12:32:01;102707.03;;;22.32
14666;BMP280;7420;53.574;10.040;2022-07-17T12:34:26;102711.16;;;22.23
14666;BMP280;7420;53.574;10.040;2022-07-17T12:36:52;102704.81;;;22.07
14666;BMP280;7420;53.574;10.040;2022-07-17T12:39:17;102706.47;;;21.96
14666;BMP280;7420;53.574;10.040;2022-07-17T12:41:42;102701.63;;;22.09
14666;BMP280;7420;53.574;10.040;2022-07-17T12:44:08;102705.19;;;21.76
14666;BMP280;7420;53.574;10.040;2022-07-17T12:46:33;102702.66;;;21.51
14666;BMP280;7420;53.574;10.040;2022-07-17T12:48:59;102693.75;;;21.85
14666;BMP280;7420;53.574;10.040;2022-07-17T12:51:24;102694.91;;;22.01
14666;BMP280;7420;53.574;10.040;2022-07-17T12:53:49;102706.34;;;21.91
14666;BMP280;7420;53.574;10.040;2022-07-17T12:56:15;102691.56;;;22.33
14666;BMP280;7420;53.574;10.040;2022-07-17T12:58:40;102700.25;;;21.96
14666;BMP280;7420;53.574;10.040;2022-07-17T13:01:06;102697.84;;;22.22
14666;BMP280;7420;53.574;10.040;2022-07-17T13:03:32;102697.16;;;22.15
14666;BMP280;7420;53.574;10.040;2022-07-17T13:05:58;102687.63;;;22.63
14666;BMP280;7420;53.574;10.040;2022-07-17T13:08:26;102699.66;;;22.56
14666;BMP280;7420;53.574;10.040;2022-07-17T13:10:52;102692.13;;;22.58
14666;BMP280;7420;53.574;10.040;2022-07-17T13:13:17;102697.78;;;22.84
14666;BMP280;7420;53.574;10.040;2022-07-17T13:15:42;102691.78;;;22.54
14666;BMP280;7420;53.574;10.040;2022-07-17T13:18:08;102687.19;;;23.11
14666;BMP280;7420;53.574;10.040;2022-07-17T13:20:33;102677.13;;;22.67
14666;BMP280;7420;53.574;10.040;2022-07-17T13:22:59;102686.44;;;23.15
14666;BMP280;7420;53.574;10.040;2022-07-17T13:25:25;102686.22;;;23.49
14666;BMP280;7420;53.574;10.040;2022-07-17T13:27:50;102691.34;;;23.30
14666;BMP280;7420;53.574;10.040;2022-07-17T13:30:15;102672.59;;;23.00
14666;BMP280;7420;53.574;10.040;2022-07-17T13:32:41;102685.50;;;23.70
14666;BMP280;7420;53.574;10.040;2022-07-17T13:35:06;102693.00;;;23.63
14666;BMP280;7420;53.574;10.040;2022-07-17T13:37:32;102679.47;;;24.01
14666;BMP280;7420;53.574;10.040;2022-07-17T13:39:57;102672.47;;;24.05
14666;BMP280;7420;53.574;10.040;2022-07-17T13:42:23;102682.50;;;24.69
14666;BMP280;7420;53.574;10.040;2022-07-17T13:44:48;102677.69;;;25.02
14666;BMP280;7420;53.574;10.040;2022-07-17T13:47:13;102674.03;;;24.92
14666;BMP280;7420;53.574;10.040;2022-07-17T13:49:39;102674.63;;;24.67
14666;BMP280;7420;53.574;10.040;2022-07-17T13:52:04;102661.53;;;24.43
14666;BMP280;7420;53.574;10.040;2022-07-17T13:54:30;102671.13;;;24.29
14666;BMP280;7420;53.574;10.040;2022-07-17T13:56:55;102673.63;;;24.14
14666;BMP280;7420;53.574;10.040;2022-07-17T13:59:22;102669.97;;;24.04
14666;BMP280;7420;53.574;10.040;2022-07-17T14:01:47;102671.88;;;24.46
14666;BMP280;7420;53.574;10.040;2022-07-17T14:04:12;102662.13;;;24.71
14666;BMP280;7420;53.574;10.040;2022-07-17T14:06:38;102664.66;;;25.04
14666;BMP280;7420;53.574;10.040;2022-07-17T14:09:03;102669.19;;;24.46
14666;BMP280;7420;53.574;10.040;2022-07-17T14:11:29;102661.66;;;25.06
14666;BMP280;7420;53.574;10.040;2022-07-17T14:13:54;102665.78;;;25.08
14666;BMP280;7420;53.574;10.040;2022-07-17T14:16:20;102661.88;;;25.62